createdAt,value
2023-03-01T00:01:50.432Z,100185.02
2023-03-01T00:04:18.739Z,100185.38
2023-03-01T00:06:48.524Z,100187.27
2023-03-01T00:09:16.967Z,100186.93
2023-03-01T00:11:45.989Z,100181.27
2023-03-01T00:14:17.361Z,100174.40
2023-03-01T00:16:47.794Z,100162.31
2023-03-01T00:19:20.393Z,100157.34
2023-03-01T00:21:49.030Z,100144.30
2023-03-01T00:24:17.951Z,100133.91
2023-03-01T00:26:46.222Z,100122.61
2023-03-01T00:29:15.123Z,100133.59
2023-03-01T00:31:43.545Z,100128.12
2023-03-01T00:34:11.899Z,100119.92
2023-03-01T00:36:40.465Z,100114.64
2023-03-01T00:39:14.551Z,100122.75
2023-03-01T00:41:43.599Z,100136.80
2023-03-01T00:44:11.969Z,100129.27
2023-03-01T00:46:41.874Z,100124.36
2023-03-01T00:49:11.836Z,100118.73
2023-03-01T00:51:42.409Z,100113.45
2023-03-01T00:54:10.507Z,100111.36
2023-03-01T00:56:39.009Z,100113.03
2023-03-01T00:59:07.327Z,100107.63
2023-03-01T01:01:36.167Z,100097.13
2023-03-01T01:04:06.903Z,100090.83
2023-03-01T01:06:53.584Z,100084.64
2023-03-01T01:09:21.884Z,100081.86
2023-03-01T01:11:51.389Z,100080.88
2023-03-01T01:14:21.282Z,100072.42
2023-03-01T01:16:50.216Z,100069.72
2023-03-01T01:19:22.471Z,100070.41
2023-03-01T01:21:51.424Z,100069.91
2023-03-01T01:24:20.932Z,100069.98
2023-03-01T01:26:49.374Z,100074.39
2023-03-01T01:29:17.494Z,100080.18
2023-03-01T01:31:45.949Z,100075.74
2023-03-01T01:34:16.540Z,100074.42
2023-03-01T01:36:44.784Z,100073.63
2023-03-01T01:39:14.246Z,100068.30
2023-03-01T01:41:45.519Z,100064.05
2023-03-01T01:44:15.189Z,100063.91
2023-03-01T01:46:52.541Z,100062.73
2023-03-01T01:49:47.708Z,100053.45
2023-03-01T01:52:36.978Z,100042.80
2023-03-01T01:55:11.602Z,100037.64
2023-03-01T01:57:46.157Z,100030.60
2023-03-01T02:00:21.605Z,100031.42
2023-03-01T02:02:53.201Z,100028.31
2023-03-01T02:05:27.239Z,100020.78
2023-03-01T02:07:55.723Z,100022.19
2023-03-01T02:10:23.925Z,100017.40
2023-03-01T02:12:52.794Z,100012.70
2023-03-01T02:15:21.162Z,100007.19
2023-03-01T02:17:55.409Z,100007.67
2023-03-01T02:20:39.530Z,100010.38
2023-03-01T02:23:08.608Z,100004.85
2023-03-01T02:25:54.653Z,100000.20
2023-03-01T02:28:36.391Z,99998.67
2023-03-01T02:31:25.314Z,99997.98
2023-03-01T02:33:55.489Z,99999.84
2023-03-01T02:36:30.646Z,99989.90
2023-03-01T02:39:00.134Z,99984.42
2023-03-01T02:41:29.617Z,99985.61
2023-03-01T02:44:00.655Z,99985.61
2023-03-01T02:46:29.422Z,99976.88
2023-03-01T02:48:59.005Z,99974.98
2023-03-01T02:51:55.134Z,99972.07
2023-03-01T02:54:32.040Z,99962.64
2023-03-01T02:57:01.443Z,99954.07
2023-03-01T02:59:33.227Z,99960.92
2023-03-01T03:02:02.118Z,99959.56
2023-03-01T03:04:30.287Z,99958.02
2023-03-01T03:06:58.714Z,99945.17
2023-03-01T03:09:27.957Z,99936.29
2023-03-01T03:12:01.996Z,99930.64
2023-03-01T03:14:30.733Z,99929.44
2023-03-01T03:16:58.822Z,99925.31
2023-03-01T03:19:27.509Z,99929.78
2023-03-01T03:21:55.601Z,99929.10
2023-03-01T03:24:24.671Z,99939.23
2023-03-01T03:26:52.766Z,99938.86
2023-03-01T03:29:20.952Z,99945.53
2023-03-01T03:32:08.827Z,99942.98
2023-03-01T03:34:37.322Z,99942.80
2023-03-01T03:37:25.610Z,99943.32
2023-03-01T03:39:55.894Z,99938.18
2023-03-01T03:42:23.988Z,99936.98
2023-03-01T03:44:52.102Z,99929.45
2023-03-01T03:47:20.147Z,99928.80
2023-03-01T03:49:48.157Z,99930.14
2023-03-01T03:52:16.846Z,99937.48
2023-03-01T03:54:45.132Z,99940.54
2023-03-01T03:57:13.196Z,99924.44
2023-03-01T03:59:41.887Z,99917.92
2023-03-01T04:02:23.351Z,99919.46
2023-03-01T04:04:51.660Z,99915.98
2023-03-01T04:07:19.774Z,99908.96
2023-03-01T04:09:48.709Z,99914.42
2023-03-01T04:12:21.764Z,99913.58
2023-03-01T04:14:50.147Z,99910.67
2023-03-01T04:17:20.500Z,99916.84
2023-03-01T04:19:52.940Z,99917.52
2023-03-01T04:22:21.486Z,99911.55
2023-03-01T04:24:50.148Z,99910.02
2023-03-01T04:27:18.285Z,99913.78
2023-03-01T04:29:46.461Z,99906.23
2023-03-01T04:32:17.445Z,99906.05
2023-03-01T04:34:45.673Z,99899.19
2023-03-01T04:37:17.686Z,99908.07
2023-03-01T04:39:48.482Z,99915.77
2023-03-01T04:42:17.760Z,99924.15
2023-03-01T04:44:46.583Z,99934.23
2023-03-01T04:47:14.976Z,99932.66
2023-03-01T04:49:43.251Z,99941.06
2023-03-01T04:52:11.372Z,99934.89
2023-03-01T04:54:42.541Z,99926.67
2023-03-01T04:57:11.181Z,99929.28
2023-03-01T04:59:43.505Z,99919.39
2023-03-01T05:02:12.391Z,99920.77
2023-03-01T05:04:40.459Z,99916.16
2023-03-01T05:07:10.653Z,99922.55
2023-03-01T05:09:39.645Z,99928.13
2023-03-01T05:12:08.632Z,99933.90
2023-03-01T05:14:37.080Z,99939.38
2023-03-01T05:17:09.132Z,99944.49
2023-03-01T05:19:37.398Z,99947.73
2023-03-01T05:22:05.993Z,99945.83
2023-03-01T05:24:35.426Z,99941.16
2023-03-01T05:27:03.967Z,99937.67
2023-03-01T05:29:37.079Z,99928.27
2023-03-01T05:32:06.976Z,99923.31
2023-03-01T05:34:37.745Z,99924.91
2023-03-01T05:37:06.360Z,99928.71
2023-03-01T05:39:36.363Z,99924.81
2023-03-01T05:42:06.329Z,99928.65
2023-03-01T05:44:35.672Z,99921.70
2023-03-01T05:47:04.031Z,99928.96
2023-03-01T05:49:33.042Z,99932.96
2023-03-01T05:52:03.982Z,99939.55
2023-03-01T05:54:38.087Z,99936.91
2023-03-01T05:57:06.275Z,99937.54
2023-03-01T05:59:42.236Z,99927.33
2023-03-01T06:02:19.657Z,99926.52
2023-03-01T06:04:50.112Z,99930.65
2023-03-01T06:07:21.135Z,99932.55
2023-03-01T06:09:49.323Z,99935.86
2023-03-01T06:12:18.456Z,99940.91
2023-03-01T06:14:53.476Z,99934.80
2023-03-01T06:17:22.500Z,99942.05
2023-03-01T06:19:51.122Z,99942.96
2023-03-01T06:22:19.950Z,99945.44
2023-03-01T06:24:51.136Z,99949.48
2023-03-01T06:27:23.843Z,99951.31
2023-03-01T06:29:54.147Z,99960.83
2023-03-01T06:32:22.803Z,99960.80
2023-03-01T06:34:53.645Z,99962.45
2023-03-01T06:37:22.377Z,99960.32
2023-03-01T06:39:51.449Z,99956.42
2023-03-01T06:42:25.675Z,99963.02
2023-03-01T06:44:59.295Z,99953.82
2023-03-01T06:47:27.711Z,99957.84
2023-03-01T06:49:58.268Z,99955.48
2023-03-01T06:52:26.774Z,99947.27
2023-03-01T06:54:54.876Z,99952.30
2023-03-01T06:57:26.147Z,99953.73
2023-03-01T07:00:00.202Z,99955.35
2023-03-01T07:02:37.546Z,99958.91
2023-03-01T07:05:06.394Z,99956.41
2023-03-01T07:07:42.752Z,99954.41
2023-03-01T07:10:18.458Z,99949.70
2023-03-01T07:12:52.644Z,99953.27
2023-03-01T07:15:21.673Z,99954.94
2023-03-01T07:17:51.876Z,99950.95
2023-03-01T07:20:29.463Z,99957.79
2023-03-01T07:22:59.755Z,99951.50
2023-03-01T07:25:29.277Z,99950.66
2023-03-01T07:27:57.653Z,99948.44
2023-03-01T07:30:28.450Z,99950.38
2023-03-01T07:32:59.073Z,99956.39
2023-03-01T07:35:28.414Z,99948.23
2023-03-01T07:37:57.218Z,99947.59
2023-03-01T07:40:25.348Z,99953.99
2023-03-01T07:42:59.564Z,99946.27
2023-03-01T07:45:44.794Z,99951.41
2023-03-01T07:48:16.134Z,99950.69
2023-03-01T07:50:44.430Z,99946.02
2023-03-01T07:53:18.005Z,99943.63
2023-03-01T07:55:46.530Z,99943.13
2023-03-01T07:58:15.471Z,99941.07
2023-03-01T08:00:50.104Z,99941.59
2023-03-01T08:03:18.514Z,99943.35
2023-03-01T08:05:46.701Z,99942.52
2023-03-01T08:08:14.993Z,99943.39
2023-03-01T08:10:43.182Z,99943.92
2023-03-01T08:13:11.638Z,99944.45
2023-03-01T08:15:39.838Z,99941.39
2023-03-01T08:18:10.295Z,99948.70
2023-03-01T08:20:38.720Z,99945.10
2023-03-01T08:23:06.843Z,99945.82
2023-03-01T08:25:35.722Z,99940.15
2023-03-01T08:28:03.917Z,99942.24
2023-03-01T08:30:35.121Z,99935.38
2023-03-01T08:33:03.658Z,99932.80
2023-03-01T08:35:31.934Z,99926.61
2023-03-01T08:38:00.641Z,99928.85
2023-03-01T08:40:29.975Z,99932.98
2023-03-01T08:43:01.877Z,99934.38
2023-03-01T08:45:30.208Z,99934.42
2023-03-01T08:47:58.759Z,99935.83
2023-03-01T08:50:27.258Z,99940.54
2023-03-01T08:52:55.487Z,99938.50
2023-03-01T08:55:23.954Z,99933.69
2023-03-01T08:57:53.610Z,99938.20
2023-03-01T09:00:22.445Z,99932.51
2023-03-01T09:02:51.308Z,99931.80
2023-03-01T09:05:20.416Z,99938.52
2023-03-01T09:07:48.852Z,99944.38
2023-03-01T09:10:17.332Z,99955.41
2023-03-01T09:12:45.530Z,99952.81
2023-03-01T09:15:13.860Z,99953.33
2023-03-01T09:17:42.407Z,99954.23
2023-03-01T09:20:12.126Z,99949.97
2023-03-01T09:22:42.646Z,99948.27
2023-03-01T09:25:10.815Z,99953.67
2023-03-01T09:27:43.148Z,99950.58
2023-03-01T09:30:12.127Z,99958.36
2023-03-01T09:32:45.941Z,99960.27
2023-03-01T09:35:14.115Z,99954.39
2023-03-01T09:37:45.747Z,99956.10
2023-03-01T09:40:24.570Z,99953.34
2023-03-01T09:43:06.691Z,99957.14
2023-03-01T09:45:36.785Z,99961.98
2023-03-01T09:48:06.583Z,99962.15
2023-03-01T09:50:40.542Z,99965.77
2023-03-01T09:53:12.799Z,99966.11
2023-03-01T09:55:57.294Z,99963.19
2023-03-01T09:58:41.084Z,99963.89
2023-03-01T10:01:46.538Z,99966.83
2023-03-01T10:04:20.709Z,99962.32
2023-03-01T10:07:19.250Z,99959.57
2023-03-01T10:09:47.606Z,99957.84
2023-03-01T10:12:21.748Z,99959.91
2023-03-01T10:15:03.589Z,99951.96
2023-03-01T10:17:52.299Z,99950.05
2023-03-01T10:20:22.632Z,99949.89
2023-03-01T10:22:53.712Z,99951.09
2023-03-01T10:25:54.364Z,99948.68
2023-03-01T10:28:41.849Z,99949.55
2023-03-01T10:31:17.793Z,99949.35
2023-03-01T10:33:46.181Z,99943.99
2023-03-01T10:36:14.426Z,99940.02
2023-03-01T10:38:59.034Z,99943.10
2023-03-01T10:41:27.978Z,99937.72
2023-03-01T10:43:58.608Z,99935.80
2023-03-01T10:46:27.922Z,99937.71
2023-03-01T10:49:19.317Z,99939.06
2023-03-01T10:51:50.378Z,99932.49
2023-03-01T10:54:20.345Z,99940.28
2023-03-01T10:56:54.886Z,99936.34
2023-03-01T10:59:43.188Z,99938.79
2023-03-01T11:02:26.021Z,99942.45
2023-03-01T11:05:26.153Z,99943.33
2023-03-01T11:07:56.241Z,99940.22
2023-03-01T11:10:34.583Z,99942.30
2023-03-01T11:13:30.232Z,99938.48
2023-03-01T11:16:09.120Z,99940.04
2023-03-01T11:18:47.852Z,99941.58
2023-03-01T11:21:17.156Z,99947.45
2023-03-01T11:23:46.121Z,99950.89
2023-03-01T11:26:15.382Z,99946.23
2023-03-01T11:28:43.532Z,99944.33
2023-03-01T11:31:16.219Z,99952.27
2023-03-01T11:34:07.032Z,99951.41
2023-03-01T11:36:56.213Z,99957.11
2023-03-01T11:40:16.520Z,99961.05
2023-03-01T11:42:45.454Z,99958.45
2023-03-01T11:45:13.802Z,99954.62
2023-03-01T11:48:00.783Z,99951.15
2023-03-01T11:50:59.396Z,99951.31
2023-03-01T11:53:30.661Z,99956.14
2023-03-01T11:56:24.931Z,99951.30
2023-03-01T11:59:08.726Z,99953.20
2023-03-01T12:01:42.698Z,99952.87
2023-03-01T12:04:56.687Z,99954.42
2023-03-01T12:07:27.522Z,99949.27
2023-03-01T12:10:18.560Z,99949.95
2023-03-01T12:13:00.339Z,99955.80
2023-03-01T12:16:09.059Z,99949.94
2023-03-01T12:18:52.970Z,99954.25
2023-03-01T12:21:38.196Z,99949.95
2023-03-01T12:24:21.655Z,99955.14
2023-03-01T12:27:15.028Z,99955.16
2023-03-01T12:30:01.997Z,99952.75
2023-03-01T12:32:51.452Z,99955.16
2023-03-01T12:35:34.985Z,99955.67
2023-03-01T12:38:15.231Z,99954.45
2023-03-01T12:41:02.019Z,99953.23
2023-03-01T12:43:53.997Z,99959.45
2023-03-01T12:46:57.464Z,99957.88
2023-03-01T12:49:34.345Z,99958.41
2023-03-01T12:52:13.164Z,99959.95
2023-03-01T12:54:41.578Z,99963.40
2023-03-01T12:57:21.545Z,99963.91
2023-03-01T13:00:22.722Z,99958.90
2023-03-01T13:03:37.734Z,99961.50
2023-03-01T13:06:13.300Z,99965.45
2023-03-01T13:09:02.614Z,99972.35
2023-03-01T13:11:30.796Z,99970.95
2023-03-01T13:14:21.162Z,99969.91
2023-03-01T13:16:55.286Z,99967.98
2023-03-01T13:19:25.259Z,99972.80
2023-03-01T13:21:56.514Z,99970.38
2023-03-01T13:24:44.769Z,99969.85
2023-03-01T13:27:18.992Z,99966.05
2023-03-01T13:30:06.905Z,99966.39
2023-03-01T13:32:46.606Z,99964.31
2023-03-01T13:35:40.977Z,99966.39
2023-03-01T13:38:45.803Z,99962.59
2023-03-01T13:41:19.120Z,99965.70
2023-03-01T13:43:48.608Z,99962.46
2023-03-01T13:46:19.624Z,99957.47
2023-03-01T13:48:51.120Z,99955.77
2023-03-01T13:51:26.001Z,99948.55
2023-03-01T13:53:55.314Z,99948.73
2023-03-01T13:56:29.069Z,99952.56
2023-03-01T13:59:04.083Z,99952.58
2023-03-01T14:01:36.634Z,99951.89
2023-03-01T14:04:25.405Z,99953.46
2023-03-01T14:07:09.883Z,99953.83
2023-03-01T14:09:42.309Z,99953.64
2023-03-01T14:12:39.592Z,99957.96
2023-03-01T14:15:35.890Z,99960.73
2023-03-01T14:18:13.544Z,99957.96
2023-03-01T14:20:44.134Z,99961.58
2023-03-01T14:23:15.240Z,99957.27
2023-03-01T14:25:56.763Z,99963.64
2023-03-01T14:28:29.754Z,99958.63
2023-03-01T14:31:01.080Z,99958.96
2023-03-01T14:33:42.330Z,99955.50
2023-03-01T14:36:12.045Z,99952.55
2023-03-01T14:38:45.210Z,99954.10
2023-03-01T14:41:24.074Z,99954.45
2023-03-01T14:43:52.140Z,99949.78
2023-03-01T14:46:30.503Z,99953.41
2023-03-01T14:49:12.024Z,99951.33
2023-03-01T14:51:41.567Z,99949.95
2023-03-01T14:54:21.576Z,99950.81
2023-03-01T14:56:51.538Z,99946.31
2023-03-01T14:59:23.760Z,99950.46
2023-03-01T15:01:52.923Z,99953.73
2023-03-01T15:04:21.677Z,99954.08
2023-03-01T15:06:54.569Z,99955.29
2023-03-01T15:09:23.105Z,99958.56
2023-03-01T15:11:51.647Z,99954.94
2023-03-01T15:14:27.461Z,99955.45
2023-03-01T15:16:56.233Z,99957.17
2023-03-01T15:19:27.485Z,99955.77
2023-03-01T15:21:56.841Z,99959.40
2023-03-01T15:24:26.593Z,99966.81
2023-03-01T15:27:08.093Z,99964.90
2023-03-01T15:29:41.678Z,99970.07
2023-03-01T15:32:29.467Z,99970.75
2023-03-01T15:34:59.281Z,99970.73
2023-03-01T15:37:49.657Z,99967.61
2023-03-01T15:40:34.423Z,99967.27
2023-03-01T15:43:07.680Z,99971.91
2023-03-01T15:45:38.473Z,99969.33
2023-03-01T15:48:27.356Z,99969.98
2023-03-01T15:50:59.595Z,99974.65
2023-03-01T15:53:27.818Z,99976.88
2023-03-01T15:55:56.177Z,99978.25
2023-03-01T15:58:25.448Z,99973.23
2023-03-01T16:01:01.265Z,99971.86
2023-03-01T16:03:30.466Z,99970.30
2023-03-01T16:05:59.227Z,99966.84
2023-03-01T16:08:27.469Z,99967.86
2023-03-01T16:10:56.833Z,99969.57
2023-03-01T16:13:28.355Z,99972.66
2023-03-01T16:16:05.352Z,99970.41
2023-03-01T16:18:33.832Z,99970.40
2023-03-01T16:21:02.253Z,99973.16
2023-03-01T16:23:31.865Z,99971.78
2023-03-01T16:26:01.326Z,99970.41
2023-03-01T16:28:30.645Z,99973.86
2023-03-01T16:30:59.961Z,99972.13
2023-03-01T16:33:32.443Z,99975.91
2023-03-01T16:36:11.538Z,99979.70
2023-03-01T16:38:39.787Z,99979.16
2023-03-01T16:41:12.268Z,99977.43
2023-03-01T16:43:42.201Z,99983.11
2023-03-01T16:46:12.641Z,99985.37
2023-03-01T16:48:40.985Z,99980.00
2023-03-01T16:51:11.571Z,99983.45
2023-03-01T16:53:47.732Z,99982.75
2023-03-01T16:56:18.865Z,99983.77
2023-03-01T16:58:47.825Z,99994.45
2023-03-01T17:01:25.785Z,99994.60
2023-03-01T17:03:54.366Z,99993.73
2023-03-01T17:06:24.784Z,99996.65
2023-03-01T17:08:53.423Z,99999.05
2023-03-01T17:11:21.935Z,99999.73
2023-03-01T17:13:56.436Z,100000.08
2023-03-01T17:16:25.611Z,100000.92
2023-03-01T17:18:53.782Z,99994.70
2023-03-01T17:21:21.977Z,99989.69
2023-03-01T17:23:50.573Z,99990.86
2023-03-01T17:26:19.920Z,99989.60
2023-03-01T17:28:52.413Z,99986.62
2023-03-01T17:31:20.826Z,99990.02
2023-03-01T17:33:50.230Z,99986.17
2023-03-01T17:36:19.200Z,99990.94
2023-03-01T17:38:50.021Z,99989.33
2023-03-01T17:41:19.110Z,99988.23
2023-03-01T17:43:47.959Z,99994.05
2023-03-01T17:46:17.073Z,99994.02
2023-03-01T17:48:49.872Z,99995.88
2023-03-01T17:51:38.546Z,99986.87
2023-03-01T17:54:06.746Z,99991.81
2023-03-01T17:56:38.918Z,99993.49
2023-03-01T17:59:07.360Z,99993.09
2023-03-01T18:01:37.727Z,99999.59
2023-03-01T18:04:05.935Z,99998.33
2023-03-01T18:06:35.707Z,99997.08
2023-03-01T18:09:05.033Z,99995.84
2023-03-01T18:11:35.619Z,100000.27
2023-03-01T18:14:04.200Z,100008.50
2023-03-01T18:16:34.229Z,100006.91
2023-03-01T18:19:04.857Z,100010.13
2023-03-01T18:21:34.443Z,100014.92
2023-03-01T18:24:02.762Z,100016.77
2023-03-01T18:26:31.460Z,100018.13
2023-03-01T18:29:01.480Z,100023.09
2023-03-01T18:31:33.483Z,100026.67
2023-03-01T18:34:02.693Z,100027.53
2023-03-01T18:36:33.103Z,100026.13
2023-03-01T18:39:02.573Z,100028.66
2023-03-01T18:41:32.940Z,100027.26
2023-03-01T18:44:02.010Z,100029.48
2023-03-01T18:46:30.974Z,100032.70
2023-03-01T18:49:00.309Z,100036.45
2023-03-01T18:51:28.695Z,100038.16
2023-03-01T18:53:58.832Z,100039.16
2023-03-01T18:56:29.629Z,100041.54
2023-03-01T18:59:00.845Z,100043.75
2023-03-01T19:01:30.952Z,100045.09
2023-03-01T19:04:01.916Z,100048.86
2023-03-01T19:06:34.233Z,100045.74
2023-03-01T19:09:06.740Z,100043.98
2023-03-01T19:11:35.828Z,100043.09
2023-03-01T19:14:04.169Z,100042.04
2023-03-01T19:16:36.014Z,100045.46
2023-03-01T19:19:08.512Z,100050.58
2023-03-01T19:21:36.964Z,100052.61
2023-03-01T19:24:07.592Z,100048.80
2023-03-01T19:26:36.488Z,100048.80
2023-03-01T19:29:06.416Z,100054.98
2023-03-01T19:31:35.512Z,100056.69
2023-03-01T19:34:12.569Z,100054.61
2023-03-01T19:36:43.372Z,100054.95
2023-03-01T19:39:13.839Z,100055.43
2023-03-01T19:41:43.112Z,100056.25
2023-03-01T19:44:12.837Z,100065.19
2023-03-01T19:46:41.307Z,100068.11
2023-03-01T19:49:09.987Z,100068.98
2023-03-01T19:51:39.528Z,100065.05
2023-03-01T19:54:09.837Z,100061.62
2023-03-01T19:56:38.641Z,100061.11
2023-03-01T19:59:07.028Z,100062.85
2023-03-01T20:01:37.726Z,100065.46
2023-03-01T20:04:09.334Z,100063.61
2023-03-01T20:06:39.224Z,100066.77
2023-03-01T20:09:20.442Z,100063.74
2023-03-01T20:11:51.759Z,100060.02
2023-03-01T20:14:24.447Z,100060.73
2023-03-01T20:16:53.437Z,100063.31
2023-03-01T20:19:21.588Z,100056.79
2023-03-01T20:21:53.773Z,100058.49
2023-03-01T20:24:22.880Z,100053.00
2023-03-01T20:26:50.972Z,100054.91
2023-03-01T20:29:20.128Z,100052.69
2023-03-01T20:31:48.713Z,100051.31
2023-03-01T20:34:17.158Z,100049.94
2023-03-01T20:36:46.487Z,100045.11
2023-03-01T20:39:16.225Z,100049.58
2023-03-01T20:41:46.292Z,100053.52
2023-03-01T20:44:19.696Z,100051.63
2023-03-01T20:46:48.418Z,100048.87
2023-03-01T20:49:16.691Z,100051.77
2023-03-01T20:51:44.780Z,100050.21
2023-03-01T20:54:14.309Z,100046.77
2023-03-01T20:56:43.374Z,100041.06
2023-03-01T20:59:11.464Z,100038.64
2023-03-01T21:01:40.626Z,100040.69
2023-03-01T21:04:10.196Z,100039.30
2023-03-01T21:06:39.756Z,100043.59
2023-03-01T21:09:08.458Z,100037.08
2023-03-01T21:11:41.276Z,100040.00
2023-03-01T21:14:09.721Z,100036.56
2023-03-01T21:16:38.144Z,100037.44
2023-03-01T21:19:11.895Z,100039.54
2023-03-01T21:21:41.416Z,100039.09
2023-03-01T21:24:10.754Z,100032.23
2023-03-01T21:26:39.538Z,100032.29
2023-03-01T21:29:08.152Z,100030.81
2023-03-01T21:31:38.291Z,100031.23
2023-03-01T21:34:06.684Z,100036.98
2023-03-01T21:36:38.955Z,100037.58
2023-03-01T21:39:07.348Z,100035.92
2023-03-01T21:41:37.202Z,100038.73
2023-03-01T21:44:06.860Z,100037.92
2023-03-01T21:46:37.383Z,100043.28
2023-03-01T21:49:07.373Z,100046.23
2023-03-01T21:51:36.654Z,100046.77
2023-03-01T21:54:07.771Z,100045.09
2023-03-01T21:56:39.304Z,100040.64
2023-03-01T21:59:09.372Z,100041.69
2023-03-01T22:01:38.701Z,100038.61
2023-03-01T22:04:06.917Z,100038.44
2023-03-01T22:06:41.190Z,100037.24
2023-03-01T22:09:19.318Z,100038.45
2023-03-01T22:11:54.069Z,100039.86
2023-03-01T22:14:23.031Z,100038.48
2023-03-01T22:16:53.960Z,100039.52
2023-03-01T22:19:22.792Z,100042.27
2023-03-01T22:21:52.424Z,100042.27
2023-03-01T22:24:22.649Z,100040.40
2023-03-01T22:26:51.100Z,100047.29
2023-03-01T22:29:26.403Z,100042.30
2023-03-01T22:31:55.481Z,100043.48
2023-03-01T22:34:23.840Z,100046.08
2023-03-01T22:36:53.197Z,100040.55
2023-03-01T22:39:21.529Z,100043.77
2023-03-01T22:41:49.737Z,100043.36
2023-03-01T22:44:19.995Z,100038.67
2023-03-01T22:46:51.951Z,100036.39
2023-03-01T22:49:20.592Z,100034.81
2023-03-01T22:51:48.863Z,100033.58
2023-03-01T22:54:18.275Z,100033.93
2023-03-01T22:56:48.752Z,100031.35
2023-03-01T22:59:23.115Z,100034.12
2023-03-01T23:01:52.376Z,100030.88
2023-03-01T23:04:20.768Z,100032.78
2023-03-01T23:06:56.069Z,100034.02
2023-03-01T23:09:31.006Z,100034.70
2023-03-01T23:12:01.879Z,100035.23
2023-03-01T23:14:31.320Z,100036.63
2023-03-01T23:17:01.651Z,100033.04
2023-03-01T23:19:30.240Z,100032.20
2023-03-01T23:21:58.240Z,100032.55
2023-03-01T23:24:31.671Z,100036.00
2023-03-01T23:27:02.248Z,100033.77
2023-03-01T23:29:31.341Z,100034.11
2023-03-01T23:31:59.978Z,100033.92
2023-03-01T23:34:28.864Z,100035.30
2023-03-01T23:36:58.744Z,100034.27
2023-03-01T23:39:27.780Z,100033.92
2023-03-01T23:41:57.230Z,100032.21
2023-03-01T23:44:27.699Z,100028.45
2023-03-01T23:46:55.825Z,100021.05
2023-03-01T23:49:24.871Z,100016.23
2023-03-01T23:51:53.377Z,100013.34
2023-03-01T23:54:22.979Z,100014.89
2023-03-01T23:56:52.147Z,100012.98
2023-03-01T23:59:22.449Z,100016.06
